createdAt,value
2019-01-21T00:00:42.871Z,10.23
2019-01-21T00:03:14.676Z,8.97
2019-01-21T00:05:43.944Z,9.70
2019-01-21T00:08:13.620Z,9.90
2019-01-21T00:10:43.216Z,8.43
2019-01-21T00:13:12.813Z,9.67
2019-01-21T00:15:42.547Z,10.20
2019-01-21T00:18:12.245Z,9.27
2019-01-21T00:20:45.111Z,9.27
2019-01-21T00:23:14.741Z,9.90
2019-01-21T00:25:44.337Z,10.27
2019-01-21T00:28:13.932Z,9.03
2019-01-21T00:30:43.535Z,8.93
2019-01-21T00:33:13.135Z,8.47
2019-01-21T00:35:42.748Z,8.43
2019-01-21T00:38:12.411Z,8.13
2019-01-21T00:40:42.386Z,6.93
2019-01-21T00:43:11.974Z,7.50
2019-01-21T00:45:41.571Z,6.90
2019-01-21T00:48:13.371Z,6.50
2019-01-21T00:50:46.536Z,7.00
2019-01-21T00:53:19.502Z,7.30
2019-01-21T00:55:49.056Z,7.13
2019-01-21T00:58:18.658Z,7.67
2019-01-21T01:00:48.253Z,8.17
2019-01-21T01:03:17.848Z,7.93
2019-01-21T01:05:47.445Z,7.50
2019-01-21T01:08:17.048Z,8.07
2019-01-21T01:10:46.643Z,8.50
2019-01-21T01:13:16.249Z,8.83
2019-01-21T01:15:45.963Z,9.20
2019-01-21T01:18:15.571Z,8.47
2019-01-21T01:20:45.157Z,8.67
2019-01-21T01:23:14.828Z,10.43
2019-01-21T01:25:44.433Z,10.17
2019-01-21T01:28:15.670Z,10.40
2019-01-21T01:30:45.267Z,9.93
2019-01-21T01:33:14.865Z,10.27
2019-01-21T01:35:44.467Z,9.03
2019-01-21T01:38:14.067Z,8.67
2019-01-21T01:40:45.835Z,8.70
2019-01-21T01:43:15.500Z,9.57
2019-01-21T01:45:45.095Z,8.97
2019-01-21T01:48:14.688Z,9.73
2019-01-21T01:50:44.281Z,10.13
2019-01-21T01:53:13.877Z,9.77
2019-01-21T01:55:43.545Z,10.70
2019-01-21T01:58:13.129Z,10.53
2019-01-21T02:00:42.727Z,10.27
2019-01-21T02:03:12.332Z,10.20
2019-01-21T02:05:42.096Z,9.77
2019-01-21T02:08:11.750Z,10.07
2019-01-21T02:10:41.351Z,10.77
2019-01-21T02:13:10.946Z,10.57
2019-01-21T02:15:40.911Z,10.63
2019-01-21T02:18:10.579Z,9.93
2019-01-21T02:20:40.257Z,10.30
2019-01-21T02:23:11.987Z,9.17
2019-01-21T02:25:47.551Z,9.80
2019-01-21T02:28:22.925Z,9.17
2019-01-21T02:31:30.877Z,12.47
2019-01-21T02:34:09.517Z,10.10
2019-01-21T02:37:02.191Z,9.57
2019-01-21T02:39:50.112Z,11.83
2019-01-21T02:42:34.791Z,9.70
2019-01-21T02:45:13.572Z,12.40
2019-01-21T02:47:49.219Z,9.20
2019-01-21T02:50:34.007Z,8.70
2019-01-21T02:53:18.910Z,8.17
2019-01-21T02:55:54.867Z,9.57
2019-01-21T02:58:39.575Z,9.90
2019-01-21T03:01:27.282Z,9.33
2019-01-21T03:04:22.811Z,9.63
2019-01-21T03:07:01.334Z,10.10
2019-01-21T03:09:46.158Z,10.77
2019-01-21T03:12:24.786Z,11.40
2019-01-21T03:15:28.109Z,10.23
2019-01-21T03:18:15.802Z,10.83
2019-01-21T03:21:07.437Z,10.07
2019-01-21T03:24:13.805Z,11.70
2019-01-21T03:26:52.588Z,11.83
2019-01-21T03:29:46.634Z,11.63
2019-01-21T03:32:39.202Z,11.97
2019-01-21T03:35:20.856Z,10.73
2019-01-21T03:37:59.973Z,9.67
2019-01-21T03:40:44.952Z,10.27
2019-01-21T03:43:50.889Z,12.07
2019-01-21T03:46:38.839Z,10.00
2019-01-21T03:49:17.740Z,10.13
2019-01-21T03:52:19.587Z,10.43
2019-01-21T03:54:50.266Z,10.77
2019-01-21T03:57:23.129Z,10.40
2019-01-21T04:00:04.752Z,12.03
2019-01-21T04:02:58.032Z,11.70
2019-01-21T04:05:30.887Z,12.57
2019-01-21T04:08:09.821Z,12.00
2019-01-21T04:10:59.285Z,11.73
2019-01-21T04:13:43.603Z,11.30
2019-01-21T04:16:19.283Z,10.77
2019-01-21T04:18:54.962Z,10.50
2019-01-21T04:21:36.827Z,12.07
2019-01-21T04:24:32.183Z,10.67
2019-01-21T04:27:07.624Z,11.47
2019-01-21T04:29:59.945Z,12.77
2019-01-21T04:32:41.464Z,12.17
2019-01-21T04:35:14.322Z,11.10
2019-01-21T04:37:56.096Z,12.07
2019-01-21T04:40:50.138Z,10.83
2019-01-21T04:43:34.907Z,11.10
2019-01-21T04:46:28.813Z,12.60
2019-01-21T04:49:07.755Z,13.13
2019-01-21T04:52:10.652Z,14.03
2019-01-21T04:54:52.502Z,13.60
2019-01-21T04:57:34.137Z,12.87
2019-01-21T05:00:09.835Z,12.73
2019-01-21T05:03:11.875Z,12.27
2019-01-21T05:05:59.961Z,12.60
2019-01-21T05:08:44.957Z,12.40
2019-01-21T05:11:34.423Z,11.53
2019-01-21T05:14:13.401Z,13.87
2019-01-21T05:17:03.068Z,13.03
2019-01-21T05:19:44.982Z,12.97
2019-01-21T05:22:27.096Z,12.17
2019-01-21T05:25:12.140Z,12.60
2019-01-21T05:27:53.787Z,13.00
2019-01-21T05:30:29.642Z,12.03
2019-01-21T05:33:11.156Z,11.90
2019-01-21T05:36:01.965Z,12.73
2019-01-21T05:38:43.845Z,13.57
2019-01-21T05:41:19.300Z,12.07
2019-01-21T05:44:10.530Z,12.30
2019-01-21T05:46:49.017Z,13.63
2019-01-21T05:49:21.905Z,12.17
2019-01-21T05:52:00.695Z,12.20
2019-01-21T05:55:06.851Z,11.67
2019-01-21T05:57:48.358Z,10.63
2019-01-21T06:00:42.148Z,11.30
2019-01-21T06:03:30.092Z,11.63
2019-01-21T06:06:20.717Z,11.50
2019-01-21T06:09:22.505Z,12.27
2019-01-21T06:12:01.665Z,12.90
2019-01-21T06:14:39.137Z,12.47
2019-01-21T06:17:24.155Z,11.67
2019-01-21T06:20:15.345Z,14.17
2019-01-21T06:23:06.312Z,11.83
2019-01-21T06:25:41.905Z,12.93
2019-01-21T06:28:20.591Z,14.00
2019-01-21T06:31:01.807Z,12.37
2019-01-21T06:33:46.513Z,13.50
2019-01-21T06:36:22.089Z,12.77
2019-01-21T06:39:19.206Z,12.23
2019-01-21T06:41:52.091Z,12.83
2019-01-21T06:44:36.281Z,12.40
2019-01-21T06:47:11.912Z,15.00
2019-01-21T06:49:44.807Z,16.33
2019-01-21T06:52:24.008Z,17.33
2019-01-21T06:55:14.603Z,16.37
2019-01-21T06:58:02.836Z,17.47
2019-01-21T07:00:44.825Z,18.03
2019-01-21T07:03:38.758Z,17.17
2019-01-21T07:06:32.566Z,16.43
2019-01-21T07:09:23.288Z,16.67
2019-01-21T07:12:01.774Z,14.37
2019-01-21T07:14:46.579Z,15.30
2019-01-21T07:17:28.665Z,15.70
2019-01-21T07:20:21.222Z,16.90
2019-01-21T07:22:54.125Z,16.30
2019-01-21T07:25:45.100Z,15.47
2019-01-21T07:28:23.617Z,17.00
2019-01-21T07:30:56.488Z,16.70
2019-01-21T07:33:46.225Z,15.67
2019-01-21T07:36:24.946Z,15.83
2019-01-21T07:39:18.764Z,15.77
2019-01-21T07:41:51.623Z,15.83
2019-01-21T07:44:36.153Z,13.93
2019-01-21T07:47:21.152Z,15.37
2019-01-21T07:50:15.280Z,16.37
2019-01-21T07:53:15.031Z,14.90
2019-01-21T07:55:59.984Z,15.43
2019-01-21T07:58:47.953Z,16.93
2019-01-21T08:01:26.895Z,16.57
2019-01-21T08:04:11.537Z,16.60
2019-01-21T08:06:59.278Z,17.23
2019-01-21T08:09:35.081Z,14.33
2019-01-21T08:12:24.431Z,14.40
2019-01-21T08:14:59.889Z,14.00
2019-01-21T08:17:52.635Z,14.83
2019-01-21T08:20:28.230Z,14.63
2019-01-21T08:23:25.846Z,15.83
2019-01-21T08:26:16.229Z,16.90
2019-01-21T08:28:59.052Z,16.00
2019-01-21T08:31:43.597Z,14.63
2019-01-21T08:34:19.330Z,16.47
2019-01-21T08:37:23.963Z,16.43
2019-01-21T08:40:37.147Z,16.30
2019-01-21T08:43:25.224Z,17.47
2019-01-21T08:49:37.181Z,17.97
2019-01-21T08:52:12.623Z,16.10
2019-01-21T08:55:26.702Z,16.37
2019-01-21T09:01:39.578Z,15.43
2019-01-21T09:04:20.666Z,15.23
2019-01-21T09:06:53.532Z,14.83
2019-01-21T09:09:26.398Z,13.50
2019-01-21T09:12:10.462Z,16.03
2019-01-21T09:14:55.105Z,12.83
2019-01-21T09:17:33.534Z,12.97
2019-01-21T09:20:24.365Z,13.53
2019-01-21T09:23:20.570Z,13.60
2019-01-21T09:26:14.034Z,14.23
2019-01-21T09:29:21.194Z,13.63
2019-01-21T09:32:14.559Z,15.03
2019-01-21T09:34:47.426Z,14.80
2019-01-21T09:37:26.419Z,14.33
2019-01-21T09:40:12.243Z,13.77
2019-01-21T09:43:07.640Z,13.03
2019-01-21T09:46:01.406Z,13.43
2019-01-21T09:48:30.068Z,14.67
2019-01-21T09:51:02.326Z,14.53
2019-01-21T09:53:32.077Z,14.97
2019-01-21T09:56:01.831Z,13.43
2019-01-21T09:58:32.065Z,15.00
2019-01-21T10:01:57.124Z,15.53
2019-01-21T10:04:48.502Z,16.37
2019-01-21T10:11:03.343Z,14.80
2019-01-21T10:13:50.781Z,15.37
2019-01-21T10:16:46.236Z,15.87
2019-01-21T10:19:28.038Z,15.53
2019-01-21T10:22:29.180Z,15.57
2019-01-21T10:26:02.849Z,15.40
2019-01-21T10:28:56.888Z,14.80
2019-01-21T10:31:40.007Z,15.77
2019-01-21T10:35:07.558Z,15.33
2019-01-21T10:38:11.465Z,15.53
2019-01-21T10:41:12.385Z,16.30
2019-01-21T10:43:50.595Z,13.03
2019-01-21T10:46:45.701Z,15.00
2019-01-21T10:50:03.584Z,14.27
2019-01-21T10:53:02.976Z,14.10
2019-01-21T10:56:07.273Z,13.37
2019-01-21T10:59:17.673Z,14.77
2019-01-21T11:02:11.431Z,13.37
2019-01-21T11:05:14.412Z,14.83
2019-01-21T11:08:05.947Z,14.70
2019-01-21T11:11:13.356Z,13.73
2019-01-21T11:14:07.909Z,14.03
2019-01-21T11:17:10.001Z,14.30
2019-01-21T11:20:53.987Z,16.37
2019-01-21T11:24:13.551Z,15.33
2019-01-21T11:27:34.032Z,16.10
2019-01-21T11:30:36.820Z,17.73
2019-01-21T11:33:41.594Z,16.40
2019-01-21T11:36:32.914Z,16.53
2019-01-21T11:39:34.747Z,15.53
2019-01-21T11:45:25.305Z,15.80
2019-01-21T11:51:23.846Z,16.90
2019-01-21T11:54:31.551Z,13.93
2019-01-21T11:57:20.339Z,13.20
2019-01-21T12:00:14.168Z,14.47
2019-01-21T12:03:16.095Z,14.60
2019-01-21T12:06:14.566Z,14.77
2019-01-21T12:08:55.652Z,16.17
2019-01-21T12:11:48.496Z,16.53
2019-01-21T12:14:33.094Z,16.20
2019-01-21T12:17:28.539Z,16.43
2019-01-21T12:20:18.154Z,17.03
2019-01-21T12:23:26.624Z,16.13
2019-01-21T12:26:39.198Z,13.77
2019-01-21T12:29:43.712Z,14.17
2019-01-21T12:32:37.058Z,14.73
2019-01-21T12:35:16.560Z,13.93
2019-01-21T12:38:06.512Z,13.53
2019-01-21T12:40:58.688Z,16.93
2019-01-21T12:44:15.768Z,17.13
2019-01-21T12:46:45.699Z,16.93
2019-01-21T12:49:27.321Z,15.20
2019-01-21T12:52:18.002Z,15.53
2019-01-21T12:55:20.452Z,16.00
2019-01-21T12:58:15.154Z,14.60
2019-01-21T13:01:15.133Z,15.50
2019-01-21T13:04:10.496Z,15.03
2019-01-21T13:06:54.966Z,12.10
2019-01-21T13:09:37.652Z,13.07
2019-01-21T13:12:43.351Z,13.07
2019-01-21T13:15:35.070Z,14.17
2019-01-21T13:18:17.727Z,15.00
2019-01-21T13:21:22.460Z,16.17
2019-01-21T13:24:51.058Z,14.63
2019-01-21T13:27:20.346Z,15.60
2019-01-21T13:30:09.066Z,16.97
2019-01-21T13:33:13.767Z,17.10
2019-01-21T13:36:25.449Z,18.47
2019-01-21T13:39:11.378Z,16.73
2019-01-21T13:41:44.248Z,16.60
2019-01-21T13:44:33.797Z,17.17
2019-01-21T13:47:15.667Z,18.07
2019-01-21T13:49:54.357Z,15.73
2019-01-21T13:52:32.857Z,18.63
2019-01-21T13:55:20.586Z,19.40
2019-01-21T13:58:18.982Z,16.30
2019-01-21T14:00:54.670Z,16.83
2019-01-21T14:03:30.230Z,18.97
2019-01-21T14:06:30.640Z,19.13
2019-01-21T14:09:06.449Z,18.83
2019-01-21T14:11:42.219Z,19.03
2019-01-21T14:14:17.741Z,19.77
2019-01-21T14:17:02.314Z,19.97
2019-01-21T14:19:38.207Z,20.83
2019-01-21T14:22:20.309Z,19.07
2019-01-21T14:24:56.313Z,20.13
2019-01-21T14:27:54.294Z,20.83
2019-01-21T14:30:32.923Z,20.90
2019-01-21T14:33:11.514Z,20.13
2019-01-21T14:35:50.444Z,19.07
2019-01-21T14:38:38.518Z,19.90
2019-01-21T14:41:17.334Z,20.70
2019-01-21T14:44:10.109Z,20.47
2019-01-21T14:46:48.907Z,18.27
2019-01-21T14:49:27.492Z,19.47
2019-01-21T14:52:22.873Z,18.00
2019-01-21T14:55:01.655Z,18.63
2019-01-21T14:57:34.557Z,19.23
2019-01-21T15:00:22.553Z,19.20
2019-01-21T15:02:58.259Z,18.50
2019-01-21T15:06:03.040Z,19.00
2019-01-21T15:08:35.918Z,19.00
2019-01-21T15:11:14.631Z,18.60
2019-01-21T15:14:02.800Z,17.60
2019-01-21T15:16:53.163Z,17.87
2019-01-21T15:19:26.238Z,18.80
2019-01-21T15:22:01.710Z,18.43
2019-01-21T15:25:00.416Z,18.77
2019-01-21T15:27:36.337Z,20.17
2019-01-21T15:30:29.087Z,18.90
2019-01-21T15:33:07.957Z,20.43
2019-01-21T15:35:57.766Z,19.20
2019-01-21T15:38:45.391Z,19.07
2019-01-21T15:41:40.908Z,19.90
2019-01-21T15:44:14.071Z,20.73
2019-01-21T15:47:15.545Z,21.17
2019-01-21T15:53:07.779Z,20.63
2019-01-21T15:55:56.062Z,22.70
2019-01-21T15:58:37.771Z,23.07
2019-01-21T16:01:27.339Z,22.93
2019-01-21T16:04:17.122Z,25.17
2019-01-21T16:06:56.069Z,25.70
2019-01-21T16:09:44.341Z,27.40
2019-01-21T16:12:29.397Z,28.00
2019-01-21T16:15:11.242Z,27.10
2019-01-21T16:17:53.345Z,29.13
2019-01-21T16:24:01.112Z,27.43
2019-01-21T16:26:38.869Z,28.53
2019-01-21T16:29:47.781Z,29.17
2019-01-21T16:32:18.950Z,29.73
2019-01-21T16:35:34.024Z,29.40
2019-01-21T16:38:08.129Z,29.80
2019-01-21T16:41:21.036Z,29.57
2019-01-21T16:44:03.558Z,30.97
2019-01-21T16:46:34.432Z,31.53
2019-01-21T16:49:13.371Z,31.23
2019-01-21T16:51:50.777Z,40.10
2019-01-21T16:54:38.903Z,34.57
2019-01-21T16:57:18.797Z,32.10
2019-01-21T16:59:59.602Z,32.77
2019-01-21T17:02:29.260Z,31.37
2019-01-21T17:04:58.878Z,29.30
2019-01-21T17:07:30.165Z,29.90
2019-01-21T17:09:59.772Z,30.23
2019-01-21T17:12:29.652Z,30.63
2019-01-21T17:15:06.721Z,32.30
2019-01-21T17:17:38.176Z,34.63
2019-01-21T17:20:22.572Z,40.17
2019-01-21T17:22:58.623Z,32.17
2019-01-21T17:25:29.353Z,32.87
2019-01-21T17:28:18.279Z,32.20
2019-01-21T17:31:19.281Z,32.30
2019-01-21T17:34:05.000Z,32.17
2019-01-21T17:36:41.746Z,32.40
2019-01-21T17:39:24.593Z,31.93
2019-01-21T17:41:54.775Z,33.70
2019-01-21T17:44:27.512Z,34.83
2019-01-21T17:47:04.505Z,33.47
2019-01-21T17:49:36.808Z,31.90
2019-01-21T17:52:21.129Z,33.57
2019-01-21T17:55:07.213Z,35.33
2019-01-21T17:57:37.370Z,33.73
2019-01-21T18:00:18.775Z,33.90
2019-01-21T18:05:51.082Z,38.23
2019-01-21T18:08:29.577Z,36.43
2019-01-21T18:11:10.503Z,37.00
2019-01-21T18:13:49.971Z,37.70
2019-01-21T18:16:35.105Z,36.63
2019-01-21T18:19:16.702Z,37.40
2019-01-21T18:21:46.004Z,39.60
2019-01-21T18:24:22.377Z,39.40
2019-01-21T18:27:14.483Z,40.23
2019-01-21T18:29:43.857Z,37.50
2019-01-21T18:32:13.156Z,38.57
2019-01-21T18:34:42.462Z,37.67
2019-01-21T18:37:11.839Z,38.47
2019-01-21T18:39:41.178Z,36.97
2019-01-21T18:42:10.566Z,34.27
2019-01-21T18:44:39.961Z,35.07
2019-01-21T18:47:09.261Z,34.00
2019-01-21T18:49:39.004Z,35.37
2019-01-21T18:52:08.425Z,34.37
2019-01-21T18:54:37.722Z,36.57
2019-01-21T18:57:07.014Z,33.10
2019-01-21T18:59:36.324Z,31.83
2019-01-21T19:02:05.637Z,33.40
2019-01-21T19:04:35.032Z,33.67
2019-01-21T19:07:54.774Z,32.00
2019-01-21T19:10:20.246Z,32.27
2019-01-21T19:12:49.566Z,32.27
2019-01-21T19:15:34.805Z,31.47
2019-01-21T19:18:18.165Z,32.93
2019-01-21T19:23:55.060Z,32.70
2019-01-21T19:29:22.989Z,32.67
2019-01-21T19:31:49.944Z,34.93
2019-01-21T19:34:19.400Z,34.90
2019-01-21T19:36:48.896Z,33.27
2019-01-21T19:39:18.331Z,35.17
2019-01-21T19:41:47.829Z,34.40
2019-01-21T19:44:20.490Z,35.13
2019-01-21T19:46:49.796Z,36.23
2019-01-21T19:49:21.158Z,37.37
2019-01-21T19:51:50.566Z,36.10
2019-01-21T19:54:19.858Z,35.87
2019-01-21T19:56:49.440Z,38.83
2019-01-21T19:59:18.949Z,36.57
2019-01-21T20:01:48.285Z,37.20
2019-01-21T20:04:17.757Z,38.97
2019-01-21T20:06:50.504Z,38.60
2019-01-21T20:09:20.152Z,37.10
2019-01-21T20:11:55.107Z,41.23
2019-01-21T20:14:47.107Z,36.23
2019-01-21T20:17:11.503Z,35.07
2019-01-21T20:19:41.004Z,35.17
2019-01-21T20:22:11.342Z,34.63
2019-01-21T20:24:40.731Z,36.27
2019-01-21T20:27:10.018Z,34.73
2019-01-21T20:29:39.318Z,36.40
2019-01-21T20:32:08.681Z,35.97
2019-01-21T20:34:37.985Z,36.40
2019-01-21T20:37:07.283Z,35.27
2019-01-21T20:39:36.574Z,36.77
2019-01-21T20:42:05.866Z,35.53
2019-01-21T20:44:35.178Z,35.57
2019-01-21T20:47:04.595Z,36.37
2019-01-21T20:49:33.932Z,40.87
2019-01-21T20:52:03.316Z,39.20
2019-01-21T20:54:32.893Z,40.43
2019-01-21T20:57:02.287Z,39.83
2019-01-21T20:59:31.677Z,42.17
2019-01-21T21:02:00.982Z,40.77
2019-01-21T21:04:31.988Z,41.50
2019-01-21T21:07:10.033Z,42.73
2019-01-21T21:09:39.906Z,40.37
2019-01-21T21:12:09.504Z,42.67
2019-01-21T21:14:38.881Z,43.53
2019-01-21T21:17:15.650Z,42.00
2019-01-21T21:19:44.959Z,44.17
2019-01-21T21:22:20.837Z,44.73
2019-01-21T21:24:45.410Z,45.77
2019-01-21T21:27:14.694Z,45.33
2019-01-21T21:29:44.306Z,46.03
2019-01-21T21:32:17.101Z,46.23
2019-01-21T21:34:46.476Z,46.20
2019-01-21T21:37:15.764Z,46.03
2019-01-21T21:39:45.076Z,47.47
2019-01-21T21:42:22.822Z,47.10
2019-01-21T21:44:52.124Z,44.50
2019-01-21T21:47:21.496Z,48.57
2019-01-21T21:49:51.685Z,52.47
2019-01-21T21:52:27.613Z,49.63
2019-01-21T21:54:52.112Z,46.83
2019-01-21T21:57:21.406Z,45.83
2019-01-21T21:59:50.769Z,48.87
2019-01-21T22:02:20.137Z,47.23
2019-01-21T22:04:49.815Z,45.27
2019-01-21T22:07:19.112Z,45.80
2019-01-21T22:09:48.410Z,45.20
2019-01-21T22:12:17.836Z,45.67
2019-01-21T22:14:47.217Z,44.63
2019-01-21T22:17:16.527Z,45.03
2019-01-21T22:19:45.827Z,42.57
2019-01-21T22:22:15.237Z,43.53
2019-01-21T22:27:23.928Z,43.67
2019-01-21T22:29:55.336Z,46.03
2019-01-21T22:35:09.079Z,41.70
2019-01-21T22:37:38.379Z,41.27
2019-01-21T22:40:11.217Z,41.47
2019-01-21T22:43:34.144Z,39.63
2019-01-21T22:49:41.286Z,38.67
2019-01-21T22:55:10.431Z,38.83
2019-01-21T22:58:04.425Z,39.63
2019-01-21T23:00:54.184Z,36.70
2019-01-21T23:04:03.182Z,39.90
2019-01-21T23:06:22.936Z,38.23
2019-01-21T23:08:52.229Z,44.90
2019-01-21T23:11:21.538Z,43.23
2019-01-21T23:13:50.830Z,47.77
2019-01-21T23:16:20.415Z,43.60
2019-01-21T23:18:49.777Z,45.10
2019-01-21T23:21:19.101Z,43.53
2019-01-21T23:23:48.401Z,43.80
2019-01-21T23:26:17.710Z,44.47
2019-01-21T23:28:47.390Z,41.60
2019-01-21T23:31:16.692Z,44.47
2019-01-21T23:33:45.997Z,40.87
2019-01-21T23:36:15.368Z,42.17
2019-01-21T23:38:44.732Z,42.63
2019-01-21T23:41:14.034Z,42.97
2019-01-21T23:43:43.335Z,40.80
2019-01-21T23:46:12.627Z,39.50
2019-01-21T23:48:41.938Z,50.97
2019-01-21T23:51:11.217Z,48.33
2019-01-21T23:53:40.588Z,49.80
2019-01-21T23:56:09.952Z,46.97
2019-01-21T23:58:39.241Z,44.97
